sensor_id;sensor_type;location;lat;lon;timestamp;pressure;altitude;pressure_sealevel;temperature;humidity
10806;BME280;5455;53.224;6.000;2022-07-30T00:01:32;101769.31;;;17.36;91.94
10806;BME280;5455;53.224;6.000;2022-07-30T00:04:03;101771.66;;;17.34;91.37
10806;BME280;5455;53.224;6.000;2022-07-30T00:06:30;101760.84;;;17.29;91.46
10806;BME280;5455;53.224;6.000;2022-07-30T00:08:58;101768.81;;;17.31;91.35
10806;BME280;5455;53.224;6.000;2022-07-30T00:11:25;101762.84;;;17.29;91.17
10806;BME280;5455;53.224;6.000;2022-07-30T00:13:54;101763.50;;;17.19;91.33
10806;BME280;5455;53.224;6.000;2022-07-30T00:16:21;101764.66;;;17.14;91.94
10806;BME280;5455;53.224;6.000;2022-07-30T00:18:49;101757.03;;;17.07;92.39
10806;BME280;5455;53.224;6.000;2022-07-30T00:21:17;101765.78;;;17.06;92.70
10806;BME280;5455;53.224;6.000;2022-07-30T00:24:02;101764.97;;;17.05;92.83
10806;BME280;5455;53.224;6.000;2022-07-30T00:26:30;101759.69;;;16.97;93.01
10806;BME280;5455;53.224;6.000;2022-07-30T00:28:57;101756.00;;;16.89;93.18
10806;BME280;5455;53.224;6.000;2022-07-30T00:31:25;101753.19;;;16.86;93.61
10806;BME280;5455;53.224;6.000;2022-07-30T00:33:52;101753.22;;;16.89;93.41
10806;BME280;5455;53.224;6.000;2022-07-30T00:36:19;101760.78;;;16.89;93.67
10806;BME280;5455;53.224;6.000;2022-07-30T00:38:46;101758.44;;;16.91;93.44
10806;BME280;5455;53.224;6.000;2022-07-30T00:41:14;101750.44;;;16.89;93.45
10806;BME280;5455;53.224;6.000;2022-07-30T00:43:42;101749.56;;;16.82;93.08
10806;BME280;5455;53.224;6.000;2022-07-30T00:46:10;101746.31;;;16.76;93.10
10806;BME280;5455;53.224;6.000;2022-07-30T00:48:37;101740.75;;;16.76;93.31
10806;BME280;5455;53.224;6.000;2022-07-30T00:51:05;101735.59;;;16.78;92.98
10806;BME280;5455;53.224;6.000;2022-07-30T00:53:33;101745.53;;;16.76;93.17
10806;BME280;5455;53.224;6.000;2022-07-30T00:56:01;101741.13;;;16.75;93.29
10806;BME280;5455;53.224;6.000;2022-07-30T00:58:28;101734.28;;;16.69;93.30
10806;BME280;5455;53.224;6.000;2022-07-30T01:00:55;101738.56;;;16.63;93.11
10806;BME280;5455;53.224;6.000;2022-07-30T01:03:23;101733.72;;;16.56;93.28
10806;BME280;5455;53.224;6.000;2022-07-30T01:05:50;101729.69;;;16.53;93.65
10806;BME280;5455;53.224;6.000;2022-07-30T01:08:17;101741.31;;;16.59;94.02
10806;BME280;5455;53.224;6.000;2022-07-30T01:10:45;101731.78;;;16.60;94.41
10806;BME280;5455;53.224;6.000;2022-07-30T01:13:12;101731.72;;;16.57;94.32
10806;BME280;5455;53.224;6.000;2022-07-30T01:15:39;101737.31;;;16.57;94.58
10806;BME280;5455;53.224;6.000;2022-07-30T01:18:09;101730.50;;;16.54;94.70
10806;BME280;5455;53.224;6.000;2022-07-30T01:20:48;101733.63;;;16.52;94.32
10806;BME280;5455;53.224;6.000;2022-07-30T01:23:35;101730.00;;;16.48;94.34
10806;BME280;5455;53.224;6.000;2022-07-30T01:26:10;101727.59;;;16.47;94.70
10806;BME280;5455;53.224;6.000;2022-07-30T01:28:41;101733.56;;;16.45;94.79
10806;BME280;5455;53.224;6.000;2022-07-30T01:31:09;101728.75;;;16.42;94.83
10806;BME280;5455;53.224;6.000;2022-07-30T01:33:42;101731.84;;;16.37;95.02
10806;BME280;5455;53.224;6.000;2022-07-30T01:36:12;101739.41;;;16.37;94.95
10806;BME280;5455;53.224;6.000;2022-07-30T01:38:42;101736.13;;;16.31;94.69
10806;BME280;5455;53.224;6.000;2022-07-30T01:41:12;101745.66;;;16.30;94.69
10806;BME280;5455;53.224;6.000;2022-07-30T01:43:41;101749.09;;;16.20;93.88
10806;BME280;5455;53.224;6.000;2022-07-30T01:46:09;101744.22;;;16.14;94.11
10806;BME280;5455;53.224;6.000;2022-07-30T01:48:38;101745.34;;;16.09;94.38
10806;BME280;5455;53.224;6.000;2022-07-30T01:51:10;101731.81;;;16.08;94.52
10806;BME280;5455;53.224;6.000;2022-07-30T01:53:41;101737.34;;;16.04;94.75
10806;BME280;5455;53.224;6.000;2022-07-30T01:56:12;101741.28;;;16.03;94.79
10806;BME280;5455;53.224;6.000;2022-07-30T01:58:45;101740.06;;;16.01;94.91
10806;BME280;5455;53.224;6.000;2022-07-30T02:01:22;101732.81;;;15.96;94.94
10806;BME280;5455;53.224;6.000;2022-07-30T02:03:55;101735.13;;;15.90;94.22
10806;BME280;5455;53.224;6.000;2022-07-30T02:06:36;101739.34;;;15.81;94.84
10806;BME280;5455;53.224;6.000;2022-07-30T02:09:07;101744.06;;;15.77;95.61
10806;BME280;5455;53.224;6.000;2022-07-30T02:11:40;101743.59;;;15.75;95.93
10806;BME280;5455;53.224;6.000;2022-07-30T02:14:38;101733.91;;;15.65;96.22
10806;BME280;5455;53.224;6.000;2022-07-30T02:17:07;101729.47;;;15.61;96.65
10806;BME280;5455;53.224;6.000;2022-07-30T02:19:50;101727.06;;;15.59;97.26
10806;BME280;5455;53.224;6.000;2022-07-30T02:22:18;101726.28;;;15.59;97.57
10806;BME280;5455;53.224;6.000;2022-07-30T02:24:49;101726.28;;;15.59;97.65
10806;BME280;5455;53.224;6.000;2022-07-30T02:27:23;101738.19;;;15.59;97.40
10806;BME280;5455;53.224;6.000;2022-07-30T02:29:54;101731.09;;;15.62;97.78
10806;BME280;5455;53.224;6.000;2022-07-30T02:32:25;101735.16;;;15.68;97.92
10806;BME280;5455;53.224;6.000;2022-07-30T02:34:59;101738.38;;;15.70;97.73
10806;BME280;5455;53.224;6.000;2022-07-30T02:37:29;101738.38;;;15.70;97.18
10806;BME280;5455;53.224;6.000;2022-07-30T02:40:13;101739.44;;;15.62;97.25
10806;BME280;5455;53.224;6.000;2022-07-30T02:42:51;101717.50;;;15.57;97.95
10806;BME280;5455;53.224;6.000;2022-07-30T02:45:23;101733.00;;;15.58;97.59
10806;BME280;5455;53.224;6.000;2022-07-30T02:47:56;101715.16;;;15.59;97.85
10806;BME280;5455;53.224;6.000;2022-07-30T02:50:25;101723.13;;;15.60;97.56
10806;BME280;5455;53.224;6.000;2022-07-30T02:52:55;101720.72;;;15.59;96.97
10806;BME280;5455;53.224;6.000;2022-07-30T02:55:26;101717.06;;;15.55;97.44
10806;BME280;5455;53.224;6.000;2022-07-30T02:57:54;101723.03;;;15.57;97.13
10806;BME280;5455;53.224;6.000;2022-07-30T03:00:24;101728.13;;;15.51;97.17
10806;BME280;5455;53.224;6.000;2022-07-30T03:02:54;101724.81;;;15.45;97.53
10806;BME280;5455;53.224;6.000;2022-07-30T03:05:24;101714.09;;;15.44;98.24
10806;BME280;5455;53.224;6.000;2022-07-30T03:07:57;101708.47;;;15.40;98.00
10806;BME280;5455;53.224;6.000;2022-07-30T03:10:26;101721.56;;;15.40;97.79
10806;BME280;5455;53.224;6.000;2022-07-30T03:12:56;101709.19;;;15.37;97.65
10806;BME280;5455;53.224;6.000;2022-07-30T03:15:24;101714.75;;;15.37;97.31
10806;BME280;5455;53.224;6.000;2022-07-30T03:17:53;101715.56;;;15.38;97.55
10806;BME280;5455;53.224;6.000;2022-07-30T03:20:26;101714.81;;;15.41;97.75
10806;BME280;5455;53.224;6.000;2022-07-30T03:22:56;101709.69;;;15.43;97.33
10806;BME280;5455;53.224;6.000;2022-07-30T03:25:28;101714.81;;;15.41;97.01
10806;BME280;5455;53.224;6.000;2022-07-30T03:28:00;101716.34;;;15.38;97.41
10806;BME280;5455;53.224;6.000;2022-07-30T03:30:28;101712.59;;;15.27;97.25
10806;BME280;5455;53.224;6.000;2022-07-30T03:32:55;101706.53;;;15.22;97.28
10806;BME280;5455;53.224;6.000;2022-07-30T03:35:23;101706.03;;;15.16;97.78
10806;BME280;5455;53.224;6.000;2022-07-30T03:37:54;101711.94;;;15.15;98.04
10806;BME280;5455;53.224;6.000;2022-07-30T03:40:22;101719.06;;;15.12;98.17
10806;BME280;5455;53.224;6.000;2022-07-30T03:42:51;101711.88;;;15.11;98.57
10806;BME280;5455;53.224;6.000;2022-07-30T03:45:21;101715.84;;;15.10;98.39
10806;BME280;5455;53.224;6.000;2022-07-30T03:47:52;101717.81;;;15.10;98.87
10806;BME280;5455;53.224;6.000;2022-07-30T03:50:22;101710.56;;;15.05;99.00
10806;BME280;5455;53.224;6.000;2022-07-30T03:52:50;101718.41;;;15.00;99.42
10806;BME280;5455;53.224;6.000;2022-07-30T03:55:18;101712.44;;;14.98;99.67
10806;BME280;5455;53.224;6.000;2022-07-30T03:57:48;101709.28;;;14.99;99.66
10806;BME280;5455;53.224;6.000;2022-07-30T04:00:20;101717.59;;;14.99;99.62
10806;BME280;5455;53.224;6.000;2022-07-30T04:02:52;101712.50;;;15.01;99.55
10806;BME280;5455;53.224;6.000;2022-07-30T04:05:30;101706.94;;;15.01;99.35
10806;BME280;5455;53.224;6.000;2022-07-30T04:08:10;101702.94;;;14.99;99.38
10806;BME280;5455;53.224;6.000;2022-07-30T04:10:39;101714.91;;;15.03;99.14
10806;BME280;5455;53.224;6.000;2022-07-30T04:13:24;101717.75;;;15.06;99.41
10806;BME280;5455;53.224;6.000;2022-07-30T04:16:00;101716.28;;;15.12;99.68
10806;BME280;5455;53.224;6.000;2022-07-30T04:18:50;101715.59;;;15.19;99.34
10806;BME280;5455;53.224;6.000;2022-07-30T04:21:22;101718.38;;;15.19;99.28
10806;BME280;5455;53.224;6.000;2022-07-30T04:23:51;101717.72;;;15.25;99.20
10806;BME280;5455;53.224;6.000;2022-07-30T04:26:33;101716.91;;;15.25;99.14
10806;BME280;5455;53.224;6.000;2022-07-30T04:29:05;101722.03;;;15.23;99.46
10806;BME280;5455;53.224;6.000;2022-07-30T04:31:33;101724.00;;;15.22;99.44
10806;BME280;5455;53.224;6.000;2022-07-30T04:34:27;101721.97;;;15.19;99.85
10806;BME280;5455;53.224;6.000;2022-07-30T04:36:55;101729.56;;;15.22;99.77
10806;BME280;5455;53.224;6.000;2022-07-30T04:39:22;101734.47;;;15.29;100.00
10806;BME280;5455;53.224;6.000;2022-07-30T04:41:49;101735.31;;;15.33;100.00
10806;BME280;5455;53.224;6.000;2022-07-30T04:44:39;101741.81;;;15.40;99.63
10806;BME280;5455;53.224;6.000;2022-07-30T04:47:32;101735.22;;;15.49;99.56
10806;BME280;5455;53.224;6.000;2022-07-30T04:50:29;101741.34;;;15.58;100.00
10806;BME280;5455;53.224;6.000;2022-07-30T04:52:57;101751.03;;;15.67;100.00
10806;BME280;5455;53.224;6.000;2022-07-30T04:55:27;101755.94;;;15.74;100.00
10806;BME280;5455;53.224;6.000;2022-07-30T04:57:55;101754.78;;;15.78;100.00
10806;BME280;5455;53.224;6.000;2022-07-30T05:00:23;101752.13;;;15.85;100.00
10806;BME280;5455;53.224;6.000;2022-07-30T05:02:51;101756.97;;;15.88;100.00
10806;BME280;5455;53.224;6.000;2022-07-30T05:05:20;101757.44;;;15.94;100.00
10806;BME280;5455;53.224;6.000;2022-07-30T05:07:47;101753.59;;;16.02;100.00
10806;BME280;5455;53.224;6.000;2022-07-30T05:10:16;101751.66;;;16.06;100.00
10806;BME280;5455;53.224;6.000;2022-07-30T05:12:43;101753.78;;;16.16;100.00
10806;BME280;5455;53.224;6.000;2022-07-30T05:15:14;101759.94;;;16.29;100.00
10806;BME280;5455;53.224;6.000;2022-07-30T05:17:41;101760.53;;;16.41;100.00
10806;BME280;5455;53.224;6.000;2022-07-30T05:20:08;101765.81;;;16.50;100.00
10806;BME280;5455;53.224;6.000;2022-07-30T05:23:02;101764.41;;;16.60;100.00
10806;BME280;5455;53.224;6.000;2022-07-30T05:25:29;101766.94;;;16.72;100.00
10806;BME280;5455;53.224;6.000;2022-07-30T05:28:13;101767.88;;;16.83;100.00
10806;BME280;5455;53.224;6.000;2022-07-30T05:30:41;101770.34;;;16.91;100.00
10806;BME280;5455;53.224;6.000;2022-07-30T05:33:15;101769.28;;;16.99;100.00
10806;BME280;5455;53.224;6.000;2022-07-30T05:35:43;101774.97;;;17.10;100.00
10806;BME280;5455;53.224;6.000;2022-07-30T05:38:10;101777.03;;;17.17;100.00
10806;BME280;5455;53.224;6.000;2022-07-30T05:40:57;101774.03;;;17.32;100.00
10806;BME280;5455;53.224;6.000;2022-07-30T05:43:42;101776.19;;;17.49;100.00
10806;BME280;5455;53.224;6.000;2022-07-30T05:46:09;101785.91;;;17.63;100.00
10806;BME280;5455;53.224;6.000;2022-07-30T05:48:37;101783.16;;;17.70;100.00
10806;BME280;5455;53.224;6.000;2022-07-30T05:51:04;101786.44;;;17.79;100.00
10806;BME280;5455;53.224;6.000;2022-07-30T05:53:32;101791.72;;;17.87;100.00
10806;BME280;5455;53.224;6.000;2022-07-30T05:56:25;101796.72;;;18.15;100.00
10806;BME280;5455;53.224;6.000;2022-07-30T05:59:03;101795.09;;;18.68;100.00
10806;BME280;5455;53.224;6.000;2022-07-30T06:02:03;101793.72;;;19.24;100.00
10806;BME280;5455;53.224;6.000;2022-07-30T06:04:45;101805.00;;;19.59;100.00
10806;BME280;5455;53.224;6.000;2022-07-30T06:07:12;101806.63;;;19.60;100.00
10806;BME280;5455;53.224;6.000;2022-07-30T06:09:39;101803.00;;;19.53;100.00
10806;BME280;5455;53.224;6.000;2022-07-30T06:12:07;101793.81;;;19.49;100.00
10806;BME280;5455;53.224;6.000;2022-07-30T06:14:34;101795.78;;;19.45;100.00
10806;BME280;5455;53.224;6.000;2022-07-30T06:17:04;101798.19;;;19.50;100.00
10806;BME280;5455;53.224;6.000;2022-07-30T06:19:58;101802.19;;;19.56;100.00
10806;BME280;5455;53.224;6.000;2022-07-30T06:22:28;101807.00;;;19.62;100.00
10806;BME280;5455;53.224;6.000;2022-07-30T06:25:00;101809.44;;;19.67;100.00
10806;BME280;5455;53.224;6.000;2022-07-30T06:27:28;101811.41;;;19.74;100.00
10806;BME280;5455;53.224;6.000;2022-07-30T06:30:00;101816.25;;;19.73;100.00
10806;BME280;5455;53.224;6.000;2022-07-30T06:32:27;101818.66;;;19.82;100.00
10806;BME280;5455;53.224;6.000;2022-07-30T06:34:54;101821.47;;;20.03;100.00
10806;BME280;5455;53.224;6.000;2022-07-30T06:37:30;101826.66;;;20.37;100.00
10806;BME280;5455;53.224;6.000;2022-07-30T06:40:19;101829.34;;;20.82;100.00
10806;BME280;5455;53.224;6.000;2022-07-30T06:42:59;101827.22;;;21.22;100.00
10806;BME280;5455;53.224;6.000;2022-07-30T06:45:34;101828.84;;;21.19;100.00
10806;BME280;5455;53.224;6.000;2022-07-30T06:48:29;101825.50;;;21.46;100.00
10806;BME280;5455;53.224;6.000;2022-07-30T06:50:59;101831.75;;;21.71;98.85
10806;BME280;5455;53.224;6.000;2022-07-30T06:53:27;101837.38;;;21.67;96.37
10806;BME280;5455;53.224;6.000;2022-07-30T06:56:32;101836.78;;;21.35;94.24
10806;BME280;5455;53.224;6.000;2022-07-30T06:59:03;101832.09;;;21.14;94.88
10806;BME280;5455;53.224;6.000;2022-07-30T07:01:42;101836.50;;;21.12;95.26
10806;BME280;5455;53.224;6.000;2022-07-30T07:04:10;101832.91;;;20.97;94.25
10806;BME280;5455;53.224;6.000;2022-07-30T07:06:38;101826.56;;;20.79;94.83
10806;BME280;5455;53.224;6.000;2022-07-30T07:09:06;101833.31;;;20.96;95.97
10806;BME280;5455;53.224;6.000;2022-07-30T07:11:49;101840.88;;;21.13;95.64
10806;BME280;5455;53.224;6.000;2022-07-30T07:14:18;101833.44;;;21.54;95.14
10806;BME280;5455;53.224;6.000;2022-07-30T07:19:37;101842.66;;;21.58;87.82
10806;BME280;5455;53.224;6.000;2022-07-30T07:22:25;101840.63;;;21.66;88.35
10806;BME280;5455;53.224;6.000;2022-07-30T07:24:52;101847.72;;;21.88;87.57
10806;BME280;5455;53.224;6.000;2022-07-30T07:27:24;101844.84;;;21.99;85.34
10806;BME280;5455;53.224;6.000;2022-07-30T07:29:55;101850.81;;;22.04;86.04
10806;BME280;5455;53.224;6.000;2022-07-30T07:32:33;101858.94;;;21.84;84.94
10806;BME280;5455;53.224;6.000;2022-07-30T07:35:02;101857.53;;;21.48;85.13
10806;BME280;5455;53.224;6.000;2022-07-30T07:37:31;101858.44;;;21.34;86.75
10806;BME280;5455;53.224;6.000;2022-07-30T07:39:58;101864.38;;;21.47;86.45
10806;BME280;5455;53.224;6.000;2022-07-30T07:42:28;101864.59;;;21.81;85.85
10806;BME280;5455;53.224;6.000;2022-07-30T07:44:55;101869.16;;;22.16;84.49
10806;BME280;5455;53.224;6.000;2022-07-30T07:47:26;101866.31;;;22.23;81.85
10806;BME280;5455;53.224;6.000;2022-07-30T07:50:06;101868.50;;;21.98;79.68
10806;BME280;5455;53.224;6.000;2022-07-30T07:52:33;101871.94;;;21.57;79.58
10806;BME280;5455;53.224;6.000;2022-07-30T07:55:00;101857.16;;;21.46;80.63
10806;BME280;5455;53.224;6.000;2022-07-30T07:57:29;101839.41;;;21.63;81.34
10806;BME280;5455;53.224;6.000;2022-07-30T07:59:57;101852.44;;;22.02;81.39
10806;BME280;5455;53.224;6.000;2022-07-30T08:02:28;101871.59;;;22.58;79.65
10806;BME280;5455;53.224;6.000;2022-07-30T08:05:05;101867.28;;;22.50;76.32
10806;BME280;5455;53.224;6.000;2022-07-30T08:07:58;101864.81;;;22.08;77.70
10806;BME280;5455;53.224;6.000;2022-07-30T08:10:44;101869.53;;;22.21;79.09
10806;BME280;5455;53.224;6.000;2022-07-30T08:13:30;101872.06;;;22.53;78.66
10806;BME280;5455;53.224;6.000;2022-07-30T08:16:56;101859.84;;;22.70;73.62
10806;BME280;5455;53.224;6.000;2022-07-30T08:19:46;101867.28;;;22.50;73.56
10806;BME280;5455;53.224;6.000;2022-07-30T08:22:20;101866.31;;;22.67;73.70
10806;BME280;5455;53.224;6.000;2022-07-30T08:24:47;101868.94;;;23.19;72.87
10806;BME280;5455;53.224;6.000;2022-07-30T08:27:16;101866.50;;;23.54;71.25
10806;BME280;5455;53.224;6.000;2022-07-30T08:29:43;101868.22;;;23.45;71.09
10806;BME280;5455;53.224;6.000;2022-07-30T08:32:10;101859.19;;;23.27;72.30
10806;BME280;5455;53.224;6.000;2022-07-30T08:34:39;101862.84;;;23.24;73.21
10806;BME280;5455;53.224;6.000;2022-07-30T08:37:08;101860.88;;;23.21;74.12
10806;BME280;5455;53.224;6.000;2022-07-30T08:39:40;101869.16;;;23.31;72.72
10806;BME280;5455;53.224;6.000;2022-07-30T08:42:07;101863.28;;;23.22;72.66
10806;BME280;5455;53.224;6.000;2022-07-30T08:44:35;101864.91;;;22.86;71.83
10806;BME280;5455;53.224;6.000;2022-07-30T08:47:06;101855.44;;;22.69;72.71
10806;BME280;5455;53.224;6.000;2022-07-30T08:49:59;101857.47;;;23.02;72.73
10806;BME280;5455;53.224;6.000;2022-07-30T08:52:36;101847.13;;;23.26;70.96
10806;BME280;5455;53.224;6.000;2022-07-30T08:55:05;101867.88;;;23.43;69.85
10806;BME280;5455;53.224;6.000;2022-07-30T08:57:33;101864.66;;;23.41;68.42
10806;BME280;5455;53.224;6.000;2022-07-30T09:00:04;101867.34;;;23.51;70.19
10806;BME280;5455;53.224;6.000;2022-07-30T09:02:32;101872.22;;;23.74;69.29
10806;BME280;5455;53.224;6.000;2022-07-30T09:05:02;101874.69;;;23.99;65.94
10806;BME280;5455;53.224;6.000;2022-07-30T09:07:34;101882.75;;;24.47;64.22
10806;BME280;5455;53.224;6.000;2022-07-30T09:10:04;101880.91;;;24.83;62.90
10806;BME280;5455;53.224;6.000;2022-07-30T09:12:42;101877.16;;;24.90;61.31
10806;BME280;5455;53.224;6.000;2022-07-30T09:15:18;101882.41;;;24.45;62.12
10806;BME280;5455;53.224;6.000;2022-07-30T09:17:55;101883.19;;;23.95;64.37
10806;BME280;5455;53.224;6.000;2022-07-30T09:20:31;101878.34;;;23.96;64.27
10806;BME280;5455;53.224;6.000;2022-07-30T09:23:02;101880.50;;;23.88;63.24
10806;BME280;5455;53.224;6.000;2022-07-30T09:25:48;101888.41;;;24.24;62.19
10806;BME280;5455;53.224;6.000;2022-07-30T09:28:34;101889.50;;;24.53;58.06
10806;BME280;5455;53.224;6.000;2022-07-30T09:31:27;101888.81;;;24.68;58.35
10806;BME280;5455;53.224;6.000;2022-07-30T09:34:22;101882.31;;;24.25;61.81
10806;BME280;5455;53.224;6.000;2022-07-30T09:37:22;101892.38;;;23.99;62.51
10806;BME280;5455;53.224;6.000;2022-07-30T09:40:17;101881.34;;;24.12;63.79
10806;BME280;5455;53.224;6.000;2022-07-30T09:43:11;101892.56;;;24.62;61.94
10806;BME280;5455;53.224;6.000;2022-07-30T09:45:50;101882.38;;;24.91;59.61
10806;BME280;5455;53.224;6.000;2022-07-30T09:48:26;101885.22;;;24.45;61.24
10806;BME280;5455;53.224;6.000;2022-07-30T09:50:55;101884.72;;;24.50;62.26
10806;BME280;5455;53.224;6.000;2022-07-30T09:53:23;101889.94;;;24.75;62.11
10806;BME280;5455;53.224;6.000;2022-07-30T09:55:51;101883.44;;;24.54;58.33
10806;BME280;5455;53.224;6.000;2022-07-30T09:58:19;101881.16;;;24.69;58.97
10806;BME280;5455;53.224;6.000;2022-07-30T10:01:07;101894.31;;;25.18;59.03
10806;BME280;5455;53.224;6.000;2022-07-30T10:04:09;101890.72;;;24.75;58.59
10806;BME280;5455;53.224;6.000;2022-07-30T10:07:01;101895.81;;;24.37;60.31
10806;BME280;5455;53.224;6.000;2022-07-30T10:09:40;101899.50;;;24.81;59.98
10806;BME280;5455;53.224;6.000;2022-07-30T10:12:14;101907.00;;;25.30;57.46
10806;BME280;5455;53.224;6.000;2022-07-30T10:14:46;101908.38;;;25.97;56.06
10806;BME280;5455;53.224;6.000;2022-07-30T10:17:18;101899.63;;;25.92;54.75
10806;BME280;5455;53.224;6.000;2022-07-30T10:20:09;101909.25;;;25.94;55.17
10806;BME280;5455;53.224;6.000;2022-07-30T10:22:57;101910.53;;;25.34;56.12
10806;BME280;5455;53.224;6.000;2022-07-30T10:25:33;101905.56;;;25.61;56.27
10806;BME280;5455;53.224;6.000;2022-07-30T10:28:22;101907.63;;;25.93;54.95
10806;BME280;5455;53.224;6.000;2022-07-30T10:30:51;101910.53;;;25.34;55.85
10806;BME280;5455;53.224;6.000;2022-07-30T10:33:27;101898.59;;;24.87;57.82
10806;BME280;5455;53.224;6.000;2022-07-30T10:36:05;101902.34;;;25.40;57.42
10806;BME280;5455;53.224;6.000;2022-07-30T10:38:37;101914.50;;;25.76;54.50
10806;BME280;5455;53.224;6.000;2022-07-30T10:41:29;101910.06;;;25.75;53.87
10806;BME280;5455;53.224;6.000;2022-07-30T10:46:59;101913.50;;;25.47;54.30
10806;BME280;5455;53.224;6.000;2022-07-30T10:49:34;101900.78;;;25.19;55.48
10806;BME280;5455;53.224;6.000;2022-07-30T10:52:09;101895.25;;;25.12;57.37
10806;BME280;5455;53.224;6.000;2022-07-30T10:54:41;101894.50;;;25.11;57.55
10806;BME280;5455;53.224;6.000;2022-07-30T11:02:23;101899.19;;;25.38;56.99
10806;BME280;5455;53.224;6.000;2022-07-30T11:08:36;101900.88;;;26.07;53.06
10806;BME280;5455;53.224;6.000;2022-07-30T11:11:41;101903.91;;;26.32;51.63
10806;BME280;5455;53.224;6.000;2022-07-30T11:17:18;101912.38;;;26.32;51.43
10806;BME280;5455;53.224;6.000;2022-07-30T11:22:38;101914.84;;;26.62;50.99
10806;BME280;5455;53.224;6.000;2022-07-30T11:25:08;101913.94;;;26.65;50.43
10806;BME280;5455;53.224;6.000;2022-07-30T11:33:29;101927.88;;;26.27;50.15
10806;BME280;5455;53.224;6.000;2022-07-30T11:35:31;101916.22;;;26.06;50.32
10806;BME280;5455;53.224;6.000;2022-07-30T11:38:12;101922.34;;;26.04;49.46
10806;BME280;5455;53.224;6.000;2022-07-30T11:43:16;101925.78;;;26.12;48.89
10806;BME280;5455;53.224;6.000;2022-07-30T11:45:48;101915.22;;;26.32;50.04
10806;BME280;5455;53.224;6.000;2022-07-30T11:48:18;101921.13;;;26.54;48.03
10806;BME280;5455;53.224;6.000;2022-07-30T11:50:47;101922.00;;;26.51;49.14
10806;BME280;5455;53.224;6.000;2022-07-30T11:53:18;101919.81;;;26.58;48.25
10806;BME280;5455;53.224;6.000;2022-07-30T11:55:52;101914.75;;;26.50;47.40
10806;BME280;5455;53.224;6.000;2022-07-30T11:58:25;101916.69;;;26.04;48.18
10806;BME280;5455;53.224;6.000;2022-07-30T12:00:55;101921.50;;;25.88;49.52
10806;BME280;5455;53.224;6.000;2022-07-30T12:03:24;101923.28;;;25.98;48.63
10806;BME280;5455;53.224;6.000;2022-07-30T12:05:55;101931.13;;;25.90;48.51
10806;BME280;5455;53.224;6.000;2022-07-30T12:08:22;101919.88;;;25.51;49.71
10806;BME280;5455;53.224;6.000;2022-07-30T12:11:02;101917.88;;;25.51;50.11
10806;BME280;5455;53.224;6.000;2022-07-30T12:13:29;101919.41;;;25.56;50.77
10806;BME280;5455;53.224;6.000;2022-07-30T12:16:14;101928.91;;;25.82;50.84
10806;BME280;5455;53.224;6.000;2022-07-30T12:18:42;101927.81;;;25.95;49.26
10806;BME280;5455;53.224;6.000;2022-07-30T12:21:10;101935.16;;;25.73;48.32
10806;BME280;5455;53.224;6.000;2022-07-30T12:23:38;101939.88;;;25.96;49.25
10806;BME280;5455;53.224;6.000;2022-07-30T12:26:08;101942.09;;;26.24;48.04
10806;BME280;5455;53.224;6.000;2022-07-30T12:28:45;101934.94;;;26.19;46.85
10806;BME280;5455;53.224;6.000;2022-07-30T12:31:16;101935.06;;;26.12;46.56
10806;BME280;5455;53.224;6.000;2022-07-30T12:33:44;101943.91;;;26.14;46.54
10806;BME280;5455;53.224;6.000;2022-07-30T12:36:23;101939.41;;;26.17;46.48
10806;BME280;5455;53.224;6.000;2022-07-30T12:38:51;101934.31;;;26.28;47.25
10806;BME280;5455;53.224;6.000;2022-07-30T12:41:20;101938.13;;;26.38;45.40
10806;BME280;5455;53.224;6.000;2022-07-30T12:43:55;101926.75;;;25.69;45.37
10806;BME280;5455;53.224;6.000;2022-07-30T12:46:26;101934.22;;;25.60;46.33
10806;BME280;5455;53.224;6.000;2022-07-30T12:48:58;101935.72;;;25.84;46.06
10806;BME280;5455;53.224;6.000;2022-07-30T12:51:52;101925.47;;;25.90;46.07
10806;BME280;5455;53.224;6.000;2022-07-30T12:54:26;101926.16;;;25.78;44.59
10806;BME280;5455;53.224;6.000;2022-07-30T12:56:58;101937.59;;;25.91;44.64
10806;BME280;5455;53.224;6.000;2022-07-30T12:59:27;101923.69;;;26.32;44.24
10806;BME280;5455;53.224;6.000;2022-07-30T13:01:55;101927.69;;;26.35;45.91
10806;BME280;5455;53.224;6.000;2022-07-30T13:04:29;101918.94;;;26.45;43.84
10806;BME280;5455;53.224;6.000;2022-07-30T13:07:09;101936.34;;;26.60;43.64
10806;BME280;5455;53.224;6.000;2022-07-30T13:09:38;101930.25;;;26.45;42.98
10806;BME280;5455;53.224;6.000;2022-07-30T13:12:12;101934.13;;;26.51;42.38
10806;BME280;5455;53.224;6.000;2022-07-30T13:14:40;101935.28;;;26.54;42.21
10806;BME280;5455;53.224;6.000;2022-07-30T13:17:08;101931.75;;;26.82;42.70
10806;BME280;5455;53.224;6.000;2022-07-30T13:19:36;101928.97;;;26.62;40.84
10806;BME280;5455;53.224;6.000;2022-07-30T13:22:03;101929.53;;;26.57;42.68
10806;BME280;5455;53.224;6.000;2022-07-30T13:24:30;101921.13;;;26.70;42.61
10806;BME280;5455;53.224;6.000;2022-07-30T13:26:59;101936.28;;;27.08;42.69
10806;BME280;5455;53.224;6.000;2022-07-30T13:29:27;101932.78;;;27.17;41.93
10806;BME280;5455;53.224;6.000;2022-07-30T13:31:54;101936.84;;;27.16;42.28
10806;BME280;5455;53.224;6.000;2022-07-30T13:34:22;101938.56;;;27.13;42.07
10806;BME280;5455;53.224;6.000;2022-07-30T13:36:51;101933.94;;;27.19;40.79
10806;BME280;5455;53.224;6.000;2022-07-30T13:39:18;101930.47;;;26.83;40.62
10806;BME280;5455;53.224;6.000;2022-07-30T13:41:46;101932.19;;;26.48;41.07
10806;BME280;5455;53.224;6.000;2022-07-30T13:44:13;101944.03;;;26.43;42.17
10806;BME280;5455;53.224;6.000;2022-07-30T13:46:40;101939.50;;;26.78;41.07
10806;BME280;5455;53.224;6.000;2022-07-30T13:49:08;101943.06;;;26.82;38.35
10806;BME280;5455;53.224;6.000;2022-07-30T13:51:37;101948.78;;;26.78;38.54
10806;BME280;5455;53.224;6.000;2022-07-30T13:54:04;101945.00;;;26.53;38.51
10806;BME280;5455;53.224;6.000;2022-07-30T13:56:31;101947.81;;;26.53;37.66
10806;BME280;5455;53.224;6.000;2022-07-30T13:58:57;101939.19;;;26.44;35.96